createdAt,value
2017-10-10T00:00:44.947Z,7.53
2017-10-10T00:03:12.211Z,8.07
2017-10-10T00:05:39.500Z,7.53
2017-10-10T00:08:06.776Z,8.60
2017-10-10T00:10:34.063Z,7.60
2017-10-10T00:13:01.378Z,10.50
2017-10-10T00:15:28.642Z,7.80
2017-10-10T00:17:55.910Z,7.93
2017-10-10T00:20:23.247Z,9.07
2017-10-10T00:22:51.196Z,9.23
2017-10-10T00:25:18.459Z,7.80
2017-10-10T00:27:45.823Z,10.80
2017-10-10T00:30:13.135Z,9.03
2017-10-10T00:32:40.456Z,10.40
2017-10-10T00:35:07.754Z,7.00
2017-10-10T00:37:35.036Z,6.90
2017-10-10T00:40:02.327Z,6.80
2017-10-10T00:42:29.640Z,7.30
2017-10-10T00:44:56.903Z,8.90
2017-10-10T00:47:24.169Z,8.50
2017-10-10T00:49:51.488Z,7.70
2017-10-10T00:52:18.759Z,6.90
2017-10-10T00:54:46.028Z,7.40
2017-10-10T00:57:13.327Z,7.57
2017-10-10T00:59:40.579Z,6.90
2017-10-10T01:02:07.844Z,7.13
2017-10-10T01:04:35.134Z,7.90
2017-10-10T01:07:02.399Z,8.07
2017-10-10T01:09:29.686Z,8.57
2017-10-10T01:11:56.952Z,7.87
2017-10-10T01:14:24.353Z,7.90
2017-10-10T01:16:51.614Z,8.07
2017-10-10T01:19:18.890Z,8.30
2017-10-10T01:21:46.192Z,7.77
2017-10-10T01:24:13.491Z,8.70
2017-10-10T01:26:40.759Z,7.80
2017-10-10T01:29:08.090Z,9.80
2017-10-10T01:31:35.357Z,7.97
2017-10-10T01:34:02.627Z,7.47
2017-10-10T01:36:29.936Z,9.50
2017-10-10T01:38:57.216Z,9.80
2017-10-10T01:41:24.531Z,11.00
2017-10-10T01:43:51.859Z,8.30
2017-10-10T01:46:19.152Z,9.93
2017-10-10T01:48:46.418Z,10.27
2017-10-10T01:51:13.759Z,10.03
2017-10-10T01:53:41.057Z,9.47
2017-10-10T01:56:08.394Z,9.83
2017-10-10T01:58:35.712Z,10.13
2017-10-10T02:01:03.027Z,13.30
2017-10-10T02:03:30.327Z,10.23
2017-10-10T02:05:57.661Z,10.47
2017-10-10T02:08:24.958Z,8.93
2017-10-10T02:10:52.249Z,11.77
2017-10-10T02:13:19.559Z,10.60
2017-10-10T02:15:46.873Z,10.57
2017-10-10T02:18:14.138Z,10.60
2017-10-10T02:20:41.435Z,9.83
2017-10-10T02:23:08.731Z,10.00
2017-10-10T02:25:36.044Z,10.77
2017-10-10T02:28:03.337Z,12.47
2017-10-10T02:30:30.636Z,12.10
2017-10-10T02:32:57.921Z,10.90
2017-10-10T02:35:25.260Z,10.10
2017-10-10T02:37:52.558Z,11.07
2017-10-10T02:40:19.876Z,11.27
2017-10-10T02:42:47.187Z,13.20
2017-10-10T02:45:14.469Z,11.40
2017-10-10T02:47:41.805Z,12.43
2017-10-10T02:50:09.097Z,12.07
2017-10-10T02:52:37.226Z,12.40
2017-10-10T02:55:04.571Z,9.70
2017-10-10T02:57:31.948Z,12.33
2017-10-10T02:59:59.238Z,12.03
2017-10-10T03:02:26.576Z,11.07
2017-10-10T03:04:53.861Z,13.90
2017-10-10T03:07:21.225Z,12.63
2017-10-10T03:09:48.547Z,12.60
2017-10-10T03:12:15.839Z,13.30
2017-10-10T03:14:43.132Z,13.80
2017-10-10T03:17:10.417Z,11.30
2017-10-10T03:19:37.713Z,14.67
2017-10-10T03:22:05.003Z,12.57
2017-10-10T03:24:32.295Z,12.03
2017-10-10T03:26:59.564Z,12.97
2017-10-10T03:29:26.878Z,14.67
2017-10-10T03:31:54.159Z,12.60
2017-10-10T03:34:21.464Z,12.87
2017-10-10T03:36:48.758Z,13.43
2017-10-10T03:39:16.075Z,15.00
2017-10-10T03:41:43.350Z,13.47
2017-10-10T03:44:10.674Z,15.00
2017-10-10T03:46:37.981Z,15.43
2017-10-10T03:49:05.321Z,15.33
2017-10-10T03:51:32.606Z,12.40
2017-10-10T03:53:59.911Z,15.80
2017-10-10T03:56:27.218Z,14.33
2017-10-10T03:58:54.540Z,14.20
2017-10-10T04:01:21.835Z,16.00
2017-10-10T04:03:49.194Z,11.60
2017-10-10T04:06:16.481Z,14.10
2017-10-10T04:08:43.771Z,16.03
2017-10-10T04:11:11.075Z,14.10
2017-10-10T04:13:38.367Z,14.50
2017-10-10T04:16:05.666Z,13.20
2017-10-10T04:18:32.939Z,13.90
2017-10-10T04:21:00.272Z,13.77
2017-10-10T04:23:27.542Z,14.80
2017-10-10T04:25:54.842Z,14.33
2017-10-10T04:28:22.120Z,14.73
2017-10-10T04:30:49.417Z,13.77
2017-10-10T04:33:16.704Z,14.37
2017-10-10T04:35:44.844Z,13.73
2017-10-10T04:38:12.114Z,14.00
2017-10-10T04:40:39.412Z,14.20
2017-10-10T04:43:06.706Z,13.77
2017-10-10T04:45:34.007Z,14.20
2017-10-10T04:48:01.301Z,14.10
2017-10-10T04:50:28.605Z,14.10
2017-10-10T04:52:55.916Z,14.53
2017-10-10T04:55:23.202Z,16.77
2017-10-10T04:57:50.503Z,16.00
2017-10-10T05:00:17.783Z,15.13
2017-10-10T05:02:45.071Z,18.17
2017-10-10T05:05:12.343Z,15.30
2017-10-10T05:07:39.677Z,16.97
2017-10-10T05:10:06.935Z,15.00
2017-10-10T05:12:34.243Z,16.33
2017-10-10T05:15:01.512Z,15.37
2017-10-10T05:17:28.809Z,17.50
2017-10-10T05:19:56.080Z,19.43
2017-10-10T05:22:23.392Z,17.77
2017-10-10T05:24:51.105Z,16.67
2017-10-10T05:27:18.612Z,17.00
2017-10-10T05:29:45.896Z,17.27
2017-10-10T05:32:13.174Z,18.10
2017-10-10T05:34:40.478Z,16.20
2017-10-10T05:37:07.747Z,17.30
2017-10-10T05:39:35.083Z,16.40
2017-10-10T05:42:02.357Z,17.23
2017-10-10T05:44:29.658Z,18.57
2017-10-10T05:46:56.952Z,17.17
2017-10-10T05:49:24.259Z,21.30
2017-10-10T05:51:51.536Z,16.87
2017-10-10T05:54:18.807Z,20.93
2017-10-10T05:56:46.128Z,17.00
2017-10-10T05:59:13.394Z,19.80
2017-10-10T06:01:40.671Z,18.80
2017-10-10T06:04:07.963Z,17.73
2017-10-10T06:06:35.236Z,19.00
2017-10-10T06:09:02.555Z,16.97
2017-10-10T06:11:29.816Z,18.73
2017-10-10T06:13:57.084Z,18.70
2017-10-10T06:16:24.378Z,20.00
2017-10-10T06:18:51.672Z,17.53
2017-10-10T06:21:18.948Z,19.13
2017-10-10T06:23:46.243Z,18.63
2017-10-10T06:26:13.514Z,20.30
2017-10-10T06:28:40.827Z,17.27
2017-10-10T06:31:08.094Z,21.20
2017-10-10T06:33:35.362Z,19.63
2017-10-10T06:36:02.662Z,20.00
2017-10-10T06:38:30.360Z,21.73
2017-10-10T06:40:57.711Z,18.77
2017-10-10T06:43:24.997Z,18.77
2017-10-10T06:45:52.259Z,19.60
2017-10-10T06:48:19.568Z,18.00
2017-10-10T06:50:46.836Z,16.90
2017-10-10T06:53:14.175Z,18.10
2017-10-10T06:55:41.442Z,18.50
2017-10-10T06:58:08.759Z,18.90
2017-10-10T07:00:36.024Z,19.10
2017-10-10T07:03:03.301Z,16.27
2017-10-10T07:05:30.601Z,16.20
2017-10-10T07:07:57.870Z,17.13
2017-10-10T07:10:25.144Z,17.10
2017-10-10T07:12:52.442Z,16.43
2017-10-10T07:15:19.715Z,16.60
2017-10-10T07:17:47.013Z,15.83
2017-10-10T07:20:14.475Z,12.60
2017-10-10T07:22:41.778Z,11.70
2017-10-10T07:25:09.043Z,12.00
2017-10-10T07:27:36.335Z,11.00
2017-10-10T07:30:03.642Z,11.17
2017-10-10T07:32:30.915Z,9.27
2017-10-10T07:34:58.174Z,8.60
2017-10-10T07:37:25.467Z,8.80
2017-10-10T07:39:52.732Z,8.30
2017-10-10T07:42:20.031Z,10.07
2017-10-10T07:44:47.300Z,9.50
2017-10-10T07:47:14.569Z,8.87
2017-10-10T07:49:41.860Z,10.47
2017-10-10T07:52:09.135Z,9.70
2017-10-10T07:54:36.434Z,8.47
2017-10-10T07:57:03.703Z,10.33
2017-10-10T07:59:30.971Z,8.47
2017-10-10T08:01:58.263Z,8.80
2017-10-10T08:04:25.528Z,9.00
2017-10-10T08:06:52.833Z,9.23
2017-10-10T08:09:20.095Z,9.60
2017-10-10T08:11:47.355Z,8.30
2017-10-10T08:14:14.662Z,9.13
2017-10-10T08:16:41.936Z,9.40
2017-10-10T08:19:09.207Z,9.40
2017-10-10T08:21:36.513Z,8.67
2017-10-10T08:24:03.771Z,8.30
2017-10-10T08:26:31.027Z,8.67
2017-10-10T08:28:58.324Z,6.77
2017-10-10T08:31:25.585Z,7.07
2017-10-10T08:33:52.843Z,7.40
2017-10-10T08:36:20.136Z,7.40
2017-10-10T08:38:47.400Z,6.60
2017-10-10T08:41:14.662Z,6.60
2017-10-10T08:43:41.933Z,6.13
2017-10-10T08:46:09.227Z,6.30
2017-10-10T08:48:36.511Z,6.93
2017-10-10T08:51:03.763Z,6.97
2017-10-10T08:53:31.066Z,6.73
2017-10-10T08:55:58.319Z,5.73
2017-10-10T08:58:25.581Z,5.70
2017-10-10T09:00:52.864Z,7.00
2017-10-10T09:03:20.147Z,6.00
2017-10-10T09:05:47.455Z,6.47
2017-10-10T09:08:14.719Z,6.27
2017-10-10T09:10:41.988Z,6.47
2017-10-10T09:13:09.267Z,6.40
2017-10-10T09:15:36.533Z,5.70
2017-10-10T09:18:03.791Z,6.07
2017-10-10T09:20:31.091Z,5.80
2017-10-10T09:22:58.352Z,6.33
2017-10-10T09:25:25.611Z,5.70
2017-10-10T09:27:52.905Z,6.30
2017-10-10T09:30:20.178Z,6.83
2017-10-10T09:32:47.475Z,5.60
2017-10-10T09:35:14.742Z,6.50
2017-10-10T09:37:42.007Z,5.97
2017-10-10T09:40:09.288Z,6.60
2017-10-10T09:42:36.546Z,6.00
2017-10-10T09:45:03.851Z,5.57
2017-10-10T09:47:31.086Z,5.03
2017-10-10T09:49:58.391Z,5.60
2017-10-10T09:52:25.661Z,6.03
2017-10-10T09:54:52.920Z,5.43
2017-10-10T09:57:20.212Z,5.30
2017-10-10T09:59:47.492Z,4.77
2017-10-10T10:02:14.782Z,4.80
2017-10-10T10:04:42.072Z,5.03
2017-10-10T10:07:09.351Z,4.23
2017-10-10T10:09:36.635Z,4.30
2017-10-10T10:12:03.892Z,4.40
2017-10-10T10:14:31.183Z,5.10
2017-10-10T10:16:58.445Z,4.30
2017-10-10T10:19:25.696Z,4.30
2017-10-10T10:21:52.991Z,4.20
2017-10-10T10:24:20.243Z,4.10
2017-10-10T10:26:47.511Z,4.50
2017-10-10T10:29:14.792Z,4.50
2017-10-10T10:31:42.050Z,3.70
2017-10-10T10:34:09.336Z,4.10
2017-10-10T10:36:36.594Z,4.00
2017-10-10T10:39:03.871Z,3.70
2017-10-10T10:41:31.159Z,3.40
2017-10-10T10:43:58.420Z,4.33
2017-10-10T10:46:25.717Z,3.80
2017-10-10T10:48:52.984Z,3.73
2017-10-10T10:51:20.240Z,3.93
2017-10-10T10:53:47.518Z,3.20
2017-10-10T10:56:14.775Z,3.70
2017-10-10T10:58:42.060Z,4.00
2017-10-10T11:01:09.348Z,3.40
2017-10-10T11:03:36.606Z,3.90
2017-10-10T11:06:03.897Z,3.10
2017-10-10T11:08:31.151Z,3.50
2017-10-10T11:10:58.439Z,3.00
2017-10-10T11:13:25.730Z,2.67
2017-10-10T11:15:52.995Z,2.90
2017-10-10T11:18:20.251Z,3.10
2017-10-10T11:20:47.545Z,2.23
2017-10-10T11:23:14.808Z,2.50
2017-10-10T11:25:42.092Z,2.00
2017-10-10T11:28:09.394Z,2.53
2017-10-10T11:30:36.670Z,2.80
2017-10-10T11:33:03.935Z,2.40
2017-10-10T11:35:31.227Z,2.30
2017-10-10T11:37:58.508Z,2.30
2017-10-10T11:40:25.807Z,2.30
2017-10-10T11:42:53.136Z,1.90
2017-10-10T11:45:20.394Z,1.70
2017-10-10T11:47:47.744Z,1.90
2017-10-10T11:50:15.027Z,1.50
2017-10-10T11:52:42.327Z,1.80
2017-10-10T11:55:09.595Z,1.40
2017-10-10T11:57:36.903Z,1.63
2017-10-10T12:00:04.188Z,1.53
2017-10-10T12:02:31.431Z,1.97
2017-10-10T12:04:58.722Z,1.87
2017-10-10T12:07:26.010Z,2.33
2017-10-10T12:09:53.270Z,1.80
2017-10-10T12:12:20.548Z,2.10
2017-10-10T12:14:47.847Z,1.90
2017-10-10T12:17:15.123Z,2.30
2017-10-10T12:19:42.411Z,1.90
2017-10-10T12:22:09.674Z,2.63
2017-10-10T12:24:36.947Z,2.37
2017-10-10T12:27:04.246Z,2.43
2017-10-10T12:29:31.528Z,2.10
2017-10-10T12:31:58.827Z,2.67
2017-10-10T12:34:26.080Z,2.00
2017-10-10T12:36:53.363Z,2.40
2017-10-10T12:39:20.658Z,2.30
2017-10-10T12:41:47.922Z,2.10
2017-10-10T12:44:15.227Z,2.30
2017-10-10T12:46:42.501Z,1.97
2017-10-10T12:49:09.777Z,2.40
2017-10-10T12:51:37.059Z,2.20
2017-10-10T12:54:04.315Z,2.43
2017-10-10T12:56:31.627Z,2.23
2017-10-10T12:58:58.896Z,2.70
2017-10-10T13:01:26.293Z,1.83
2017-10-10T13:03:53.535Z,2.30
2017-10-10T13:06:20.843Z,3.00
2017-10-10T13:08:48.156Z,2.40
2017-10-10T13:11:15.519Z,2.60
2017-10-10T13:13:42.804Z,2.63
2017-10-10T13:16:10.062Z,2.63
2017-10-10T13:18:37.345Z,2.93
2017-10-10T13:21:04.604Z,2.53
2017-10-10T13:23:31.899Z,2.83
2017-10-10T13:25:59.183Z,2.60
2017-10-10T13:28:26.454Z,2.97
2017-10-10T13:30:53.778Z,2.57
2017-10-10T13:33:21.040Z,2.23
2017-10-10T13:35:48.304Z,2.80
2017-10-10T13:38:15.591Z,2.70
2017-10-10T13:40:42.880Z,2.73
2017-10-10T13:43:10.162Z,2.73
2017-10-10T13:45:37.470Z,2.77
2017-10-10T13:48:04.754Z,2.73
2017-10-10T13:50:32.382Z,3.07
2017-10-10T13:52:59.647Z,3.10
2017-10-10T13:55:26.982Z,3.03
2017-10-10T13:57:54.285Z,3.20
2017-10-10T14:00:21.547Z,2.97
2017-10-10T14:02:48.859Z,2.77
2017-10-10T14:05:16.116Z,3.17
2017-10-10T14:07:43.375Z,2.80
2017-10-10T14:10:10.663Z,2.97
2017-10-10T14:12:37.931Z,2.70
2017-10-10T14:15:05.420Z,3.20
2017-10-10T14:17:32.706Z,3.03
2017-10-10T14:19:59.999Z,2.97
2017-10-10T14:22:27.259Z,2.63
2017-10-10T14:24:54.526Z,2.50
2017-10-10T14:27:21.843Z,3.00
2017-10-10T14:29:49.095Z,2.80
2017-10-10T14:32:16.346Z,2.70
2017-10-10T14:34:43.650Z,2.90
2017-10-10T14:37:10.916Z,3.00
2017-10-10T14:39:38.179Z,3.00
2017-10-10T14:42:05.490Z,3.00
2017-10-10T14:44:32.748Z,3.17
2017-10-10T14:47:00.011Z,2.60
2017-10-10T14:49:27.298Z,3.33
2017-10-10T14:51:54.564Z,2.07
2017-10-10T14:54:21.871Z,2.30
2017-10-10T14:56:49.131Z,3.07
2017-10-10T14:59:16.400Z,2.57
2017-10-10T15:01:43.691Z,2.43
2017-10-10T15:04:10.984Z,2.77
2017-10-10T15:06:38.267Z,2.33
2017-10-10T15:09:05.535Z,2.77
2017-10-10T15:11:32.828Z,2.37
2017-10-10T15:14:00.111Z,2.57
2017-10-10T15:16:27.412Z,2.30
2017-10-10T15:18:54.670Z,2.50
2017-10-10T15:21:21.933Z,2.77
2017-10-10T15:23:49.225Z,2.17
2017-10-10T15:26:16.491Z,2.77
2017-10-10T15:28:43.762Z,2.73
2017-10-10T15:31:11.042Z,2.50
2017-10-10T15:33:38.307Z,3.20
2017-10-10T15:36:05.596Z,3.27
2017-10-10T15:38:32.863Z,2.70
2017-10-10T15:41:00.163Z,2.80
2017-10-10T15:43:27.461Z,2.20
2017-10-10T15:45:54.704Z,2.10
2017-10-10T15:48:22.009Z,2.40
2017-10-10T15:50:49.304Z,2.73
2017-10-10T15:53:16.592Z,2.30
2017-10-10T15:55:43.882Z,3.07
2017-10-10T15:58:11.147Z,2.63
2017-10-10T16:00:38.437Z,2.90
2017-10-10T16:03:05.744Z,2.60
2017-10-10T16:05:33.036Z,2.30
2017-10-10T16:08:00.293Z,2.77
2017-10-10T16:10:27.586Z,2.80
2017-10-10T16:12:54.846Z,2.70
2017-10-10T16:15:22.131Z,2.80
2017-10-10T16:17:49.406Z,2.40
2017-10-10T16:20:16.714Z,2.20
2017-10-10T16:22:43.971Z,2.40
2017-10-10T16:25:11.239Z,3.10
2017-10-10T16:27:38.540Z,2.37
2017-10-10T16:30:05.819Z,2.43
2017-10-10T16:32:33.110Z,2.87
2017-10-10T16:35:00.374Z,2.53
2017-10-10T16:37:27.647Z,2.70
2017-10-10T16:39:54.944Z,2.70
2017-10-10T16:42:22.213Z,2.63
2017-10-10T16:44:49.516Z,2.60
2017-10-10T16:47:16.773Z,2.23
2017-10-10T16:49:44.031Z,2.63
2017-10-10T16:52:11.337Z,2.20
2017-10-10T16:54:38.609Z,2.40
2017-10-10T16:57:05.875Z,3.53
2017-10-10T16:59:33.166Z,2.80
2017-10-10T17:02:00.428Z,2.83
2017-10-10T17:04:27.731Z,3.10
2017-10-10T17:06:54.999Z,3.10
2017-10-10T17:09:22.258Z,2.90
2017-10-10T17:11:49.547Z,3.10
2017-10-10T17:14:16.821Z,3.50
2017-10-10T17:16:44.099Z,2.67
2017-10-10T17:19:11.407Z,3.30
2017-10-10T17:21:38.674Z,3.47
2017-10-10T17:24:05.955Z,3.10
2017-10-10T17:26:33.214Z,3.17
2017-10-10T17:31:34.098Z,3.83
2017-10-10T17:34:01.378Z,3.47
2017-10-10T17:36:28.666Z,3.30
2017-10-10T17:38:55.957Z,3.50
2017-10-10T17:41:23.252Z,3.13
2017-10-10T17:43:50.504Z,3.47
2017-10-10T17:46:17.764Z,3.90
2017-10-10T17:48:45.043Z,3.20
2017-10-10T17:51:12.345Z,3.73
2017-10-10T17:53:39.600Z,3.60
2017-10-10T17:56:06.893Z,3.53
2017-10-10T17:58:34.179Z,3.70
2017-10-10T18:01:01.481Z,3.30
2017-10-10T18:03:28.739Z,3.63
2017-10-10T18:05:56.016Z,3.23
2017-10-10T18:08:23.310Z,2.90
2017-10-10T18:10:50.563Z,3.33
2017-10-10T18:13:17.858Z,3.43
2017-10-10T18:15:45.135Z,3.53
2017-10-10T18:18:12.402Z,3.30
2017-10-10T18:20:39.698Z,4.00
2017-10-10T18:23:06.960Z,3.90
2017-10-10T18:25:34.215Z,3.30
2017-10-10T18:28:01.505Z,3.27
2017-10-10T18:30:28.799Z,3.57
2017-10-10T18:32:56.287Z,3.50
2017-10-10T18:35:23.540Z,3.63
2017-10-10T18:37:50.839Z,3.53
2017-10-10T18:40:18.106Z,3.60
2017-10-10T18:42:45.363Z,4.40
2017-10-10T18:45:12.642Z,5.13
2017-10-10T18:47:39.927Z,3.87
2017-10-10T18:50:07.187Z,4.77
2017-10-10T18:52:34.463Z,3.97
2017-10-10T18:55:01.751Z,4.57
2017-10-10T18:57:29.011Z,3.90
2017-10-10T18:59:56.290Z,4.50
2017-10-10T19:02:23.552Z,4.43
2017-10-10T19:04:50.838Z,4.60
2017-10-10T19:07:18.094Z,4.43
2017-10-10T19:09:45.387Z,4.40
2017-10-10T19:12:12.674Z,4.50
2017-10-10T19:14:39.930Z,4.70
2017-10-10T19:17:07.227Z,4.43
2017-10-10T19:19:34.488Z,4.77
2017-10-10T19:22:01.784Z,4.20
2017-10-10T19:24:29.034Z,4.13
2017-10-10T19:26:56.298Z,4.50
2017-10-10T19:29:23.583Z,5.43
2017-10-10T19:31:50.842Z,5.17
2017-10-10T19:34:18.138Z,5.47
2017-10-10T19:36:45.387Z,6.27
2017-10-10T19:39:12.691Z,5.60
2017-10-10T19:41:39.957Z,4.80
2017-10-10T19:44:07.218Z,5.80
2017-10-10T19:46:34.508Z,5.60
2017-10-10T19:49:01.799Z,5.60
2017-10-10T19:51:29.071Z,6.17
2017-10-10T19:53:56.369Z,5.67
2017-10-10T19:56:23.625Z,5.63
2017-10-10T19:58:50.922Z,6.13
2017-10-10T20:01:18.182Z,6.20
2017-10-10T20:03:45.448Z,5.60
2017-10-10T20:06:12.731Z,5.23
2017-10-10T20:08:39.998Z,6.37
2017-10-10T20:11:07.301Z,5.93
2017-10-10T20:13:34.582Z,6.30
2017-10-10T20:16:01.872Z,6.03
2017-10-10T20:18:29.130Z,7.20
2017-10-10T20:20:56.423Z,5.90
2017-10-10T20:23:23.686Z,5.07
2017-10-10T20:25:50.970Z,5.93
2017-10-10T20:28:18.235Z,6.10
2017-10-10T20:30:45.492Z,5.30
2017-10-10T20:33:12.802Z,6.60
2017-10-10T20:35:40.050Z,5.83
2017-10-10T20:38:07.306Z,5.13
2017-10-10T20:40:34.595Z,6.20
2017-10-10T20:43:01.895Z,5.80
2017-10-10T20:45:29.146Z,5.60
2017-10-10T20:47:56.412Z,5.57
2017-10-10T20:50:23.698Z,6.50
2017-10-10T20:52:51.001Z,5.73
2017-10-10T20:55:18.434Z,5.67
2017-10-10T20:57:45.709Z,5.82
2017-10-10T21:00:13.008Z,6.53
2017-10-10T21:02:40.265Z,6.83
2017-10-10T21:05:07.547Z,6.50
2017-10-10T21:07:34.973Z,6.47
2017-10-10T21:10:03.194Z,7.23
2017-10-10T21:12:31.086Z,6.50
2017-10-10T21:14:58.837Z,6.47
2017-10-10T21:17:26.527Z,7.17
2017-10-10T21:19:53.835Z,6.63
2017-10-10T21:22:21.092Z,5.90
2017-10-10T21:24:48.374Z,6.47
2017-10-10T21:27:15.639Z,7.47
2017-10-10T21:29:42.928Z,6.93
2017-10-10T21:32:10.189Z,6.73
2017-10-10T21:34:37.491Z,7.60
2017-10-10T21:37:04.755Z,6.67
2017-10-10T21:39:32.016Z,6.40
2017-10-10T21:41:59.303Z,6.30
2017-10-10T21:44:26.594Z,6.93
2017-10-10T21:46:53.890Z,7.80
2017-10-10T21:49:21.155Z,6.40
2017-10-10T21:51:48.412Z,6.97
2017-10-10T21:54:15.731Z,6.80
2017-10-10T21:56:42.999Z,7.93
2017-10-10T21:59:10.263Z,7.40
2017-10-10T22:01:37.551Z,7.77
2017-10-10T22:04:04.839Z,8.40
2017-10-10T22:06:32.140Z,8.87
2017-10-10T22:08:59.394Z,8.03
2017-10-10T22:11:26.683Z,6.57
2017-10-10T22:13:53.979Z,7.10
2017-10-10T22:16:21.238Z,7.97
2017-10-10T22:18:48.539Z,6.83
2017-10-10T22:21:15.807Z,7.67
2017-10-10T22:23:43.067Z,7.17
2017-10-10T22:26:10.360Z,7.70
2017-10-10T22:28:37.659Z,6.53
2017-10-10T22:31:04.923Z,6.93
2017-10-10T22:33:32.187Z,7.70
2017-10-10T22:35:59.483Z,7.77
2017-10-10T22:38:26.757Z,6.87
2017-10-10T22:40:54.016Z,9.17
2017-10-10T22:43:21.307Z,7.37
2017-10-10T22:45:48.576Z,7.13
2017-10-10T22:48:15.843Z,7.93
2017-10-10T22:50:43.137Z,7.03
2017-10-10T22:53:10.429Z,6.60
2017-10-10T22:55:37.724Z,8.00
2017-10-10T22:58:04.988Z,8.23
2017-10-10T23:00:32.287Z,9.10
2017-10-10T23:02:59.591Z,6.83
2017-10-10T23:05:26.852Z,9.20
2017-10-10T23:07:54.110Z,8.10
2017-10-10T23:10:21.407Z,6.63
2017-10-10T23:12:48.697Z,7.33
2017-10-10T23:15:15.959Z,7.97
2017-10-10T23:17:43.247Z,8.13
2017-10-10T23:20:10.507Z,8.80
2017-10-10T23:22:37.807Z,7.43
2017-10-10T23:25:05.066Z,8.33
2017-10-10T23:27:32.358Z,8.10
2017-10-10T23:29:59.631Z,10.83
2017-10-10T23:32:26.899Z,7.97
2017-10-10T23:34:54.190Z,8.33
2017-10-10T23:37:21.499Z,8.70
2017-10-10T23:39:48.750Z,10.80
2017-10-10T23:42:16.060Z,10.30
2017-10-10T23:44:43.342Z,10.13
2017-10-10T23:47:10.606Z,9.10
2017-10-10T23:49:37.902Z,10.23
2017-10-10T23:52:05.163Z,8.60
2017-10-10T23:54:32.439Z,8.37
2017-10-10T23:56:59.739Z,12.40
2017-10-10T23:59:27.038Z,8.70
